createdAt,value
2018-04-10T00:02:17.462Z,15.03
2018-04-10T00:04:44.926Z,14.99
2018-04-10T00:07:12.410Z,15.05
2018-04-10T00:09:39.944Z,14.97
2018-04-10T00:12:07.431Z,14.94
2018-04-10T00:14:35.017Z,14.93
2018-04-10T00:17:02.495Z,14.85
2018-04-10T00:19:30.006Z,14.96
2018-04-10T00:21:57.465Z,14.82
2018-04-10T00:24:24.988Z,14.73
2018-04-10T00:26:52.476Z,14.70
2018-04-10T00:29:19.952Z,14.71
2018-04-10T00:31:47.427Z,14.70
2018-04-10T00:34:14.902Z,14.63
2018-04-10T00:36:42.354Z,14.55
2018-04-10T00:39:10.161Z,14.44
2018-04-10T00:41:37.653Z,14.31
2018-04-10T00:44:05.155Z,14.26
2018-04-10T00:46:32.654Z,14.24
2018-04-10T00:49:00.155Z,14.11
2018-04-10T00:51:27.613Z,14.08
2018-04-10T00:53:55.056Z,14.26
2018-04-10T00:56:22.522Z,14.32
2018-04-10T00:58:50.014Z,14.23
2018-04-10T01:01:17.517Z,14.14
2018-04-10T01:03:44.997Z,14.12
2018-04-10T01:06:12.487Z,14.00
2018-04-10T01:08:40.082Z,13.89
2018-04-10T01:11:07.596Z,13.79
2018-04-10T01:13:35.075Z,13.77
2018-04-10T01:16:02.558Z,13.71
2018-04-10T01:18:30.057Z,13.65
2018-04-10T01:20:57.536Z,13.59
2018-04-10T01:23:25.022Z,13.50
2018-04-10T01:25:52.474Z,13.46
2018-04-10T01:28:19.997Z,13.39
2018-04-10T01:30:47.453Z,13.36
2018-04-10T01:33:14.942Z,13.50
2018-04-10T01:35:42.436Z,13.56
2018-04-10T01:38:10.005Z,13.58
2018-04-10T01:40:37.489Z,13.52
2018-04-10T01:43:04.944Z,13.53
2018-04-10T01:45:32.413Z,13.52
2018-04-10T01:47:59.896Z,13.45
2018-04-10T01:50:27.368Z,13.46
2018-04-10T01:52:55.061Z,13.54
2018-04-10T01:55:22.569Z,13.59
2018-04-10T01:57:50.058Z,13.56
2018-04-10T02:00:17.546Z,13.64
2018-04-10T02:02:45.052Z,13.58
2018-04-10T02:05:12.583Z,13.53
2018-04-10T02:07:40.064Z,13.54
2018-04-10T02:10:07.548Z,13.52
2018-04-10T02:12:35.022Z,13.46
2018-04-10T02:15:02.489Z,13.50
2018-04-10T02:17:29.957Z,13.59
2018-04-10T02:19:57.425Z,13.66
2018-04-10T02:22:24.916Z,13.72
2018-04-10T02:24:52.413Z,13.86
2018-04-10T02:27:19.898Z,13.91
2018-04-10T02:29:47.367Z,13.98
2018-04-10T02:32:14.875Z,14.02
2018-04-10T02:34:42.379Z,14.13
2018-04-10T02:37:10.034Z,14.11
2018-04-10T02:39:37.577Z,14.13
2018-04-10T02:42:05.056Z,14.10
2018-04-10T02:44:32.517Z,14.06
2018-04-10T02:47:00.001Z,14.02
2018-04-10T02:49:27.497Z,14.08
2018-04-10T02:51:55.161Z,14.06
2018-04-10T02:54:22.653Z,14.08
2018-04-10T02:56:50.114Z,14.09
2018-04-10T02:59:17.572Z,14.13
2018-04-10T03:01:45.097Z,14.07
2018-04-10T03:04:12.597Z,14.03
2018-04-10T03:06:40.103Z,14.05
2018-04-10T03:09:07.846Z,13.97
2018-04-10T03:11:35.335Z,13.88
2018-04-10T03:14:03.059Z,13.90
2018-04-10T03:16:30.510Z,13.91
2018-04-10T03:18:58.156Z,13.92
2018-04-10T03:21:25.767Z,13.92
2018-04-10T03:23:53.235Z,13.90
2018-04-10T03:26:20.700Z,13.94
2018-04-10T03:28:48.153Z,14.02
2018-04-10T03:31:15.637Z,13.95
2018-04-10T03:33:43.099Z,13.94
2018-04-10T03:36:10.616Z,14.01
2018-04-10T03:38:38.183Z,13.99
2018-04-10T03:41:05.650Z,13.96
2018-04-10T03:43:33.414Z,14.04
2018-04-10T03:46:00.877Z,13.99
2018-04-10T03:48:28.375Z,13.95
2018-04-10T03:50:55.886Z,13.88
2018-04-10T03:53:23.390Z,13.81
2018-04-10T03:55:50.910Z,13.79
2018-04-10T03:58:18.416Z,13.84
2018-04-10T04:00:45.928Z,13.74
2018-04-10T04:03:13.423Z,13.57
2018-04-10T04:05:40.936Z,13.42
2018-04-10T04:08:08.474Z,13.32
2018-04-10T04:10:35.986Z,13.18
2018-04-10T04:13:03.472Z,13.06
2018-04-10T04:15:30.986Z,12.97
2018-04-10T04:17:58.551Z,12.85
2018-04-10T04:20:38.958Z,12.80
2018-04-10T04:23:06.422Z,12.69
2018-04-10T04:25:34.761Z,12.62
2018-04-10T04:28:02.300Z,12.59
2018-04-10T04:30:29.769Z,12.48
2018-04-10T04:32:57.432Z,12.43
2018-04-10T04:35:24.902Z,12.34
2018-04-10T04:37:52.389Z,12.36
2018-04-10T04:40:20.139Z,12.33
2018-04-10T04:42:47.633Z,12.31
2018-04-10T04:45:15.169Z,12.27
2018-04-10T04:47:42.656Z,12.31
2018-04-10T04:50:10.188Z,12.22
2018-04-10T04:52:37.669Z,12.28
2018-04-10T04:55:05.148Z,12.25
2018-04-10T04:57:32.687Z,12.32
2018-04-10T05:00:00.249Z,12.30
2018-04-10T05:02:27.776Z,12.39
2018-04-10T05:04:55.255Z,12.33
2018-04-10T05:07:22.748Z,12.27
2018-04-10T05:09:50.251Z,12.39
2018-04-10T05:12:17.786Z,12.42
2018-04-10T05:14:45.283Z,12.48
2018-04-10T05:17:12.767Z,12.65
2018-04-10T05:19:40.299Z,12.64
2018-04-10T05:22:07.889Z,12.78
2018-04-10T05:24:35.363Z,12.74
2018-04-10T05:29:36.724Z,12.81
2018-04-10T05:32:04.227Z,12.82
2018-04-10T05:34:31.714Z,12.99
2018-04-10T05:36:59.242Z,13.13
2018-04-10T05:39:26.824Z,13.11
2018-04-10T05:41:54.322Z,13.27
2018-04-10T05:44:21.831Z,13.45
2018-04-10T05:46:49.329Z,13.50
2018-04-10T05:49:16.845Z,13.48
2018-04-10T05:51:44.440Z,13.44
2018-04-10T05:54:11.944Z,13.46
2018-04-10T05:56:39.429Z,13.38
2018-04-10T05:59:06.932Z,13.44
2018-04-10T06:01:34.434Z,13.41
2018-04-10T06:04:01.967Z,13.26
2018-04-10T06:06:29.450Z,13.12
2018-04-10T06:08:56.976Z,13.41
2018-04-10T06:11:24.585Z,13.49
2018-04-10T06:13:52.086Z,13.69
2018-04-10T06:16:19.591Z,13.66
2018-04-10T06:18:47.090Z,13.86
2018-04-10T06:21:14.607Z,14.04
2018-04-10T06:23:42.112Z,13.97
2018-04-10T06:26:09.703Z,14.00
2018-04-10T06:28:37.213Z,14.30
2018-04-10T06:31:04.704Z,14.50
2018-04-10T06:33:32.185Z,14.70
2018-04-10T06:35:59.760Z,14.86
2018-04-10T06:38:27.242Z,15.16
2018-04-10T06:40:54.762Z,15.16
2018-04-10T06:43:22.239Z,15.24
2018-04-10T06:45:49.732Z,15.26
2018-04-10T06:48:17.253Z,15.58
2018-04-10T06:50:44.803Z,15.71
2018-04-10T06:53:12.279Z,15.92
2018-04-10T06:55:39.770Z,15.78
2018-04-10T06:58:07.300Z,15.91
2018-04-10T07:00:34.806Z,16.16
2018-04-10T07:03:02.296Z,16.34
2018-04-10T07:05:29.935Z,16.59
2018-04-10T07:07:57.448Z,16.48
2018-04-10T07:10:24.967Z,16.77
2018-04-10T07:12:52.446Z,17.17
2018-04-10T07:15:19.936Z,17.55
2018-04-10T07:17:47.655Z,17.83
2018-04-10T07:20:15.152Z,17.85
2018-04-10T07:22:42.665Z,17.85
2018-04-10T07:25:10.202Z,17.70
2018-04-10T07:27:37.728Z,17.70
2018-04-10T07:30:05.225Z,18.06
2018-04-10T07:32:32.761Z,18.01
2018-04-10T07:35:00.316Z,17.98
2018-04-10T07:37:27.793Z,18.07
2018-04-10T07:39:55.317Z,17.65
2018-04-10T07:42:22.837Z,17.72
2018-04-10T07:44:50.503Z,17.79
2018-04-10T07:47:17.995Z,17.99
2018-04-10T07:49:45.496Z,18.12
2018-04-10T07:52:12.979Z,18.00
2018-04-10T07:54:40.550Z,18.01
2018-04-10T07:57:08.025Z,18.24
2018-04-10T07:59:35.523Z,18.41
2018-04-10T08:02:03.074Z,18.35
2018-04-10T08:04:30.562Z,18.49
2018-04-10T08:06:58.055Z,18.88
2018-04-10T08:09:25.548Z,18.77
2018-04-10T08:11:53.067Z,18.93
2018-04-10T08:14:20.552Z,19.20
2018-04-10T08:16:48.045Z,19.17
2018-04-10T08:19:15.532Z,19.02
2018-04-10T08:21:43.022Z,19.47
2018-04-10T08:24:10.501Z,19.98
2018-04-10T08:26:37.973Z,19.89
2018-04-10T08:29:05.600Z,20.01
2018-04-10T08:31:33.148Z,20.33
2018-04-10T08:34:00.694Z,19.72
2018-04-10T08:36:28.293Z,19.91
2018-04-10T08:38:55.801Z,19.18
2018-04-10T08:41:23.294Z,19.59
2018-04-10T08:43:50.998Z,20.18
2018-04-10T08:46:18.486Z,19.84
2018-04-10T08:48:45.989Z,20.20
2018-04-10T08:51:13.496Z,20.62
2018-04-10T08:53:41.029Z,20.69
2018-04-10T08:56:08.522Z,20.96
2018-04-10T08:58:36.002Z,21.27
2018-04-10T09:01:03.507Z,20.72
2018-04-10T09:03:31.017Z,21.17
2018-04-10T09:05:58.533Z,20.65
2018-04-10T09:08:26.052Z,20.37
2018-04-10T09:10:53.559Z,20.11
2018-04-10T09:13:21.052Z,20.49
2018-04-10T09:15:48.550Z,20.45
2018-04-10T09:18:16.089Z,20.32
2018-04-10T09:20:43.583Z,20.29
2018-04-10T09:23:11.147Z,20.66
2018-04-10T09:25:38.757Z,20.91
2018-04-10T09:28:06.324Z,20.89
2018-04-10T09:30:33.847Z,20.82
2018-04-10T09:33:01.462Z,20.90
2018-04-10T09:35:28.976Z,21.05
2018-04-10T09:37:56.471Z,20.94
2018-04-10T09:40:23.987Z,21.15
2018-04-10T09:42:51.553Z,20.98
2018-04-10T09:45:19.091Z,21.08
2018-04-10T09:47:46.623Z,21.47
2018-04-10T09:50:14.192Z,21.09
2018-04-10T09:52:41.656Z,21.53
2018-04-10T09:55:09.281Z,21.75
2018-04-10T09:57:36.788Z,21.46
2018-04-10T10:00:04.308Z,21.55
2018-04-10T10:02:31.823Z,22.55
2018-04-10T10:04:59.325Z,22.55
2018-04-10T10:07:26.830Z,22.45
2018-04-10T10:09:54.314Z,22.96
2018-04-10T10:12:21.782Z,22.64
2018-04-10T10:14:49.439Z,23.00
2018-04-10T10:17:17.014Z,22.60
2018-04-10T10:19:44.504Z,21.98
2018-04-10T10:22:11.999Z,22.36
2018-04-10T10:24:39.485Z,22.75
2018-04-10T10:27:07.120Z,23.02
2018-04-10T10:29:34.732Z,22.99
2018-04-10T10:32:02.332Z,23.75
2018-04-10T10:34:29.853Z,23.91
2018-04-10T10:36:58.588Z,23.44
2018-04-10T10:39:26.090Z,23.31
2018-04-10T10:41:53.600Z,23.77
2018-04-10T10:44:21.072Z,24.08
2018-04-10T10:46:48.627Z,23.38
2018-04-10T10:49:16.159Z,23.26
2018-04-10T10:51:43.644Z,22.86
2018-04-10T10:54:11.140Z,23.23
2018-04-10T10:56:38.785Z,23.10
2018-04-10T10:59:06.252Z,23.81
2018-04-10T11:01:33.761Z,23.69
2018-04-10T11:04:01.307Z,23.90
2018-04-10T11:06:28.811Z,23.96
2018-04-10T11:08:56.347Z,23.84
2018-04-10T11:11:24.052Z,24.20
2018-04-10T11:13:51.601Z,24.37
2018-04-10T11:16:19.100Z,24.81
2018-04-10T11:18:46.603Z,25.01
2018-04-10T11:21:14.117Z,25.61
2018-04-10T11:23:41.602Z,25.39
2018-04-10T11:26:09.092Z,25.00
2018-04-10T11:28:36.642Z,25.51
2018-04-10T11:31:04.178Z,25.60
2018-04-10T11:33:31.691Z,25.88
2018-04-10T11:35:59.226Z,26.27
2018-04-10T11:38:26.719Z,26.89
2018-04-10T11:40:54.220Z,27.61
2018-04-10T11:43:21.713Z,28.18
2018-04-10T11:45:49.218Z,28.34
2018-04-10T11:48:16.711Z,30.04
2018-04-10T11:50:44.202Z,30.56
2018-04-10T11:53:11.724Z,30.40
2018-04-10T11:55:39.214Z,30.72
2018-04-10T11:58:06.683Z,32.61
2018-04-10T12:00:34.240Z,32.24
2018-04-10T12:03:01.768Z,31.33
2018-04-10T12:05:29.262Z,32.71
2018-04-10T12:07:56.780Z,34.26
2018-04-10T12:10:24.351Z,34.13
2018-04-10T12:12:51.884Z,36.56
2018-04-10T12:15:19.445Z,36.67
2018-04-10T12:17:46.951Z,35.17
2018-04-10T12:20:14.446Z,36.11
2018-04-10T12:22:41.940Z,35.94
2018-04-10T12:25:09.426Z,37.23
2018-04-10T12:27:37.022Z,36.66
2018-04-10T12:30:04.541Z,37.66
2018-04-10T12:32:32.133Z,36.52
2018-04-10T12:34:59.659Z,35.17
2018-04-10T12:37:27.122Z,35.86
2018-04-10T12:39:54.688Z,33.69
2018-04-10T12:42:22.193Z,36.54
2018-04-10T12:44:49.697Z,36.34
2018-04-10T12:47:17.188Z,34.80
2018-04-10T12:49:44.691Z,35.01
2018-04-10T12:52:12.165Z,32.13
2018-04-10T12:54:39.664Z,30.17
2018-04-10T12:57:07.282Z,29.46
2018-04-10T12:59:34.762Z,31.12
2018-04-10T13:02:02.251Z,32.00
2018-04-10T13:04:29.752Z,31.59
2018-04-10T13:06:57.251Z,31.96
2018-04-10T13:09:24.750Z,31.35
2018-04-10T13:11:52.237Z,30.24
2018-04-10T13:14:19.967Z,31.51
2018-04-10T13:16:47.479Z,31.46
2018-04-10T13:19:15.030Z,31.54
2018-04-10T13:21:42.591Z,31.17
2018-04-10T13:24:11.307Z,31.50
2018-04-10T13:26:38.845Z,32.30
2018-04-10T13:29:06.293Z,31.86
2018-04-10T13:31:33.788Z,31.50
2018-04-10T13:34:01.324Z,32.01
2018-04-10T13:36:29.001Z,31.34
2018-04-10T13:38:56.498Z,31.58
2018-04-10T13:41:23.981Z,30.96
2018-04-10T13:43:51.567Z,30.59
2018-04-10T13:46:19.153Z,30.03
2018-04-10T13:48:46.643Z,29.01
2018-04-10T13:51:14.118Z,27.82
2018-04-10T13:53:41.620Z,27.69
2018-04-10T13:56:09.230Z,27.02
2018-04-10T13:58:36.733Z,27.89
2018-04-10T14:01:04.284Z,29.27
2018-04-10T14:03:31.844Z,28.87
2018-04-10T14:05:59.345Z,28.21
2018-04-10T14:08:26.903Z,27.68
2018-04-10T14:10:54.412Z,26.46
2018-04-10T14:13:21.913Z,26.94
2018-04-10T14:15:49.422Z,26.77
2018-04-10T14:18:16.942Z,26.71
2018-04-10T14:20:44.451Z,26.73
2018-04-10T14:23:11.970Z,27.75
2018-04-10T14:25:39.458Z,27.28
2018-04-10T14:28:06.952Z,27.25
2018-04-10T14:30:34.471Z,27.38
2018-04-10T14:33:02.044Z,27.49
2018-04-10T14:35:30.085Z,27.83
2018-04-10T14:37:57.579Z,27.29
2018-04-10T14:40:25.117Z,26.44
2018-04-10T14:42:52.641Z,26.28
2018-04-10T14:45:20.130Z,26.01
2018-04-10T14:47:47.634Z,25.52
2018-04-10T14:50:15.247Z,25.73
2018-04-10T14:52:42.728Z,26.08
2018-04-10T14:55:10.220Z,25.24
2018-04-10T14:57:37.760Z,24.46
2018-04-10T15:00:05.230Z,24.14
2018-04-10T15:02:32.744Z,24.26
2018-04-10T15:05:00.308Z,24.15
2018-04-10T15:07:27.809Z,24.29
2018-04-10T15:09:55.297Z,23.30
2018-04-10T15:12:22.887Z,23.32
2018-04-10T15:14:50.447Z,22.95
2018-04-10T15:17:18.017Z,21.09
2018-04-10T15:19:45.508Z,20.36
2018-04-10T15:22:12.986Z,19.35
2018-04-10T15:24:40.533Z,18.47
2018-04-10T15:27:08.028Z,17.79
2018-04-10T15:29:35.520Z,17.74
2018-04-10T15:32:03.033Z,17.50
2018-04-10T15:34:30.697Z,17.14
2018-04-10T15:36:58.335Z,16.67
2018-04-10T15:39:25.983Z,16.43
2018-04-10T15:41:53.634Z,15.73
2018-04-10T15:44:21.453Z,15.47
2018-04-10T15:46:48.990Z,15.48
2018-04-10T15:49:16.549Z,15.15
2018-04-10T15:51:44.027Z,14.55
2018-04-10T15:54:11.531Z,14.47
2018-04-10T15:56:39.082Z,14.58
2018-04-10T15:59:07.115Z,14.11
2018-04-10T16:01:34.608Z,14.10
2018-04-10T16:04:02.241Z,14.09
2018-04-10T16:06:29.935Z,14.11
2018-04-10T16:08:57.469Z,14.03
2018-04-10T16:11:24.948Z,13.72
2018-04-10T16:13:52.668Z,13.61
2018-04-10T16:16:20.231Z,13.36
2018-04-10T16:18:48.148Z,13.18
2018-04-10T16:21:15.804Z,13.01
2018-04-10T16:23:43.301Z,12.92
2018-04-10T16:26:10.831Z,12.82
2018-04-10T16:28:38.325Z,12.96
2018-04-10T16:31:05.847Z,13.01
2018-04-10T16:33:33.354Z,12.82
2018-04-10T16:36:00.862Z,12.66
2018-04-10T16:38:28.346Z,12.69
2018-04-10T16:40:55.865Z,12.69
2018-04-10T16:43:23.340Z,12.61
2018-04-10T16:45:50.883Z,12.65
2018-04-10T16:48:18.407Z,12.84
2018-04-10T16:50:45.895Z,12.86
2018-04-10T16:53:13.421Z,12.80
2018-04-10T16:55:42.009Z,12.79
2018-04-10T16:58:09.533Z,12.77
2018-04-10T17:00:37.048Z,12.60
2018-04-10T17:03:04.537Z,12.43
2018-04-10T17:05:32.045Z,12.26
2018-04-10T17:07:59.559Z,12.10
2018-04-10T17:10:27.176Z,11.29
2018-04-10T17:12:54.660Z,10.82
2018-04-10T17:15:22.183Z,10.50
2018-04-10T17:17:49.719Z,10.28
2018-04-10T17:20:17.308Z,9.88
2018-04-10T17:22:44.817Z,9.74
2018-04-10T17:25:12.322Z,9.85
2018-04-10T17:27:39.805Z,9.86
2018-04-10T17:30:07.355Z,9.88
2018-04-10T17:32:34.846Z,9.85
2018-04-10T17:35:02.417Z,9.83
2018-04-10T17:37:29.920Z,9.95
2018-04-10T17:39:57.521Z,9.94
2018-04-10T17:42:25.008Z,10.02
2018-04-10T17:44:52.595Z,10.06
2018-04-10T17:47:20.102Z,10.03
2018-04-10T17:49:47.913Z,10.14
2018-04-10T17:52:15.441Z,9.99
2018-04-10T17:54:44.851Z,9.95
2018-04-10T17:57:12.764Z,9.83
2018-04-10T17:59:40.325Z,9.77
2018-04-10T18:02:07.880Z,9.79
2018-04-10T18:04:35.359Z,9.63
2018-04-10T18:07:02.855Z,9.40
2018-04-10T18:09:30.405Z,9.23
2018-04-10T18:11:57.981Z,9.30
2018-04-10T18:14:25.483Z,9.16
2018-04-10T18:16:53.018Z,9.11
2018-04-10T18:19:20.580Z,9.18
2018-04-10T18:21:53.322Z,9.10
2018-04-10T18:24:20.850Z,9.17
2018-04-10T18:26:48.763Z,9.21
2018-04-10T18:29:19.608Z,9.31
2018-04-10T18:31:47.159Z,9.27
2018-04-10T18:34:15.697Z,9.39
2018-04-10T18:36:43.723Z,9.23
2018-04-10T18:39:12.566Z,9.15
2018-04-10T18:41:40.080Z,9.28
2018-04-10T18:44:07.602Z,9.47
2018-04-10T18:46:35.160Z,9.37
2018-04-10T18:49:02.735Z,9.39
2018-04-10T18:51:30.352Z,9.29
2018-04-10T18:53:57.933Z,9.30
2018-04-10T18:56:25.434Z,9.40
2018-04-10T18:58:52.943Z,9.43
2018-04-10T19:01:20.421Z,9.50
2018-04-10T19:03:48.009Z,9.53
2018-04-10T19:06:15.789Z,9.61
2018-04-10T19:08:43.327Z,9.48
2018-04-10T19:11:10.929Z,9.56
2018-04-10T19:13:40.538Z,9.64
2018-04-10T19:16:08.150Z,9.60
2018-04-10T19:18:35.973Z,9.63
2018-04-10T19:21:03.497Z,9.64
2018-04-10T19:23:31.022Z,9.50
2018-04-10T19:25:58.844Z,9.56
2018-04-10T19:28:26.516Z,9.43
2018-04-10T19:30:55.080Z,9.20
2018-04-10T19:33:22.789Z,9.27
2018-04-10T19:35:50.351Z,9.32
2018-04-10T19:38:17.844Z,9.26
2018-04-10T19:40:45.359Z,9.23
2018-04-10T19:43:15.759Z,9.25
2018-04-10T19:45:43.429Z,9.22
2018-04-10T19:48:10.900Z,9.27
2018-04-10T19:50:38.436Z,9.33
2018-04-10T19:53:06.147Z,9.19
2018-04-10T19:55:33.793Z,9.29
2018-04-10T19:58:01.341Z,9.24
2018-04-10T20:00:28.912Z,9.28
2018-04-10T20:02:57.553Z,9.14
2018-04-10T20:05:25.055Z,9.13
2018-04-10T20:07:52.637Z,9.28
2018-04-10T20:10:20.110Z,9.44
2018-04-10T20:12:47.635Z,9.47
2018-04-10T20:15:15.384Z,9.53
2018-04-10T20:17:42.982Z,9.61
2018-04-10T20:20:10.792Z,9.66
2018-04-10T20:22:38.452Z,9.70
2018-04-10T20:25:05.959Z,9.76
2018-04-10T20:27:33.594Z,9.62
2018-04-10T20:30:01.167Z,9.64
2018-04-10T20:32:28.713Z,9.52
2018-04-10T20:34:56.246Z,9.57
2018-04-10T20:37:23.787Z,9.65
2018-04-10T20:39:51.435Z,9.69
2018-04-10T20:42:18.936Z,9.73
2018-04-10T20:44:46.556Z,9.68
2018-04-10T20:47:14.072Z,9.67
2018-04-10T20:49:41.609Z,9.60
2018-04-10T20:52:09.319Z,9.75
2018-04-10T20:54:36.878Z,9.82
2018-04-10T20:57:04.521Z,9.87
2018-04-10T20:59:32.081Z,9.76
2018-04-10T21:01:59.596Z,9.84
2018-04-10T21:04:27.094Z,9.87
2018-04-10T21:06:54.569Z,9.79
2018-04-10T21:09:22.112Z,9.78
2018-04-10T21:11:49.891Z,9.83
2018-04-10T21:14:17.682Z,9.82
2018-04-10T21:16:45.233Z,9.91
2018-04-10T21:19:12.751Z,9.89
2018-04-10T21:21:40.387Z,9.92
2018-04-10T21:24:08.084Z,9.83
2018-04-10T21:26:35.707Z,9.75
2018-04-10T21:29:03.211Z,9.79
2018-04-10T21:31:30.838Z,9.80
2018-04-10T21:33:58.541Z,9.79
2018-04-10T21:36:26.168Z,9.81
2018-04-10T21:38:53.698Z,9.89
2018-04-10T21:41:21.209Z,9.87
2018-04-10T21:43:48.754Z,9.84
2018-04-10T21:46:17.468Z,9.78
2018-04-10T21:48:45.102Z,9.86
2018-04-10T21:51:14.355Z,9.91
2018-04-10T21:53:43.271Z,9.87
2018-04-10T21:56:10.817Z,9.92
2018-04-10T21:58:38.426Z,9.85
2018-04-10T22:01:05.961Z,9.89
2018-04-10T22:03:33.728Z,9.89
2018-04-10T22:06:02.619Z,9.88
2018-04-10T22:08:30.258Z,9.87
2018-04-10T22:10:58.661Z,9.95
2018-04-10T22:13:26.128Z,9.94
2018-04-10T22:15:53.647Z,9.94
2018-04-10T22:18:21.134Z,9.91
2018-04-10T22:20:48.765Z,9.90
2018-04-10T22:23:16.829Z,9.96
2018-04-10T22:25:44.308Z,9.90
2018-04-10T22:28:11.798Z,9.98
2018-04-10T22:30:39.278Z,9.99
2018-04-10T22:33:06.734Z,10.00
2018-04-10T22:35:34.335Z,10.03
2018-04-10T22:38:01.996Z,10.02
2018-04-10T22:40:29.483Z,10.08
2018-04-10T22:42:56.960Z,10.10
2018-04-10T22:45:24.432Z,10.09
2018-04-10T22:47:51.928Z,10.03
2018-04-10T22:50:23.558Z,10.07
2018-04-10T22:52:54.125Z,10.00
2018-04-10T22:55:23.421Z,9.94
2018-04-10T22:57:52.217Z,9.92
2018-04-10T23:03:26.172Z,9.93
2018-04-10T23:05:53.787Z,9.87
2018-04-10T23:08:21.597Z,9.82
2018-04-10T23:10:50.104Z,9.80
2018-04-10T23:13:18.875Z,9.72
2018-04-10T23:15:48.516Z,9.73
2018-04-10T23:18:18.773Z,9.70
2018-04-10T23:20:47.136Z,9.59
2018-04-10T23:23:14.730Z,9.46
2018-04-10T23:25:42.219Z,9.43
2018-04-10T23:28:09.699Z,9.47
2018-04-10T23:30:37.183Z,9.42
2018-04-10T23:33:04.675Z,9.44
2018-04-10T23:35:32.180Z,9.49
2018-04-10T23:37:59.657Z,9.35
2018-04-10T23:40:27.289Z,9.37
2018-04-10T23:42:54.765Z,9.32
2018-04-10T23:45:22.239Z,9.30
2018-04-10T23:47:49.759Z,9.24
2018-04-10T23:50:17.462Z,9.26
2018-04-10T23:52:44.953Z,9.18
2018-04-10T23:55:12.419Z,9.19
2018-04-10T23:57:39.901Z,9.14
